createdAt,value
2019-05-03T00:04:38.499Z,99736.84
2019-05-03T00:09:42.504Z,99735.93
2019-05-03T00:14:47.380Z,99734.05
2019-05-03T00:19:49.582Z,99733.03
2019-05-03T00:25:03.096Z,99728.33
2019-05-03T00:29:55.915Z,99734.28
2019-05-03T00:35:01.796Z,99734.89
2019-05-03T00:40:05.818Z,99729.38
2019-05-03T00:45:08.437Z,99739.26
2019-05-03T00:50:12.060Z,99735.75
2019-05-03T00:55:18.515Z,99735.79
2019-05-03T01:00:18.846Z,99736.59
2019-05-03T01:05:22.675Z,99735.47
2019-05-03T01:10:25.388Z,99729.32
2019-05-03T01:15:37.485Z,99735.75
2019-05-03T01:20:39.864Z,99740.77
2019-05-03T01:25:42.919Z,99731.31
2019-05-03T01:30:45.586Z,99741.77
2019-05-03T01:35:47.747Z,99738.75
2019-05-03T01:40:49.917Z,99738.37
2019-05-03T01:45:52.146Z,99738.53
2019-05-03T01:51:22.769Z,99748.05
2019-05-03T01:56:24.946Z,99753.13
2019-05-03T02:01:55.470Z,99751.92
2019-05-03T02:06:57.871Z,99757.72
2019-05-03T02:12:02.003Z,99763.07
2019-05-03T02:17:04.150Z,99768.62
2019-05-03T02:22:06.302Z,99777.65
2019-05-03T02:27:08.574Z,99774.80
2019-05-03T02:32:13.317Z,99768.73
2019-05-03T02:37:15.330Z,99769.41
2019-05-03T02:42:17.767Z,99778.56
2019-05-03T02:47:40.597Z,99791.27
2019-05-03T02:52:43.435Z,99786.34
2019-05-03T02:57:47.039Z,99784.75
2019-05-03T03:02:49.608Z,99784.75
2019-05-03T03:07:52.582Z,99797.52
2019-05-03T03:12:58.334Z,99784.04
2019-05-03T03:18:00.509Z,99791.09
2019-05-03T03:23:02.825Z,99803.45
2019-05-03T03:28:07.715Z,99806.92
2019-05-03T03:33:17.142Z,99795.57
2019-05-03T03:38:18.021Z,99802.33
2019-05-03T03:43:21.599Z,99802.23
2019-05-03T03:48:26.502Z,99805.26
2019-05-03T03:53:31.164Z,99814.09
2019-05-03T03:58:35.925Z,99817.89
2019-05-03T04:03:37.563Z,99825.11
2019-05-03T04:08:40.217Z,99829.91
2019-05-03T04:13:45.240Z,99833.68
2019-05-03T04:19:07.350Z,99832.16
2019-05-03T04:24:09.549Z,99846.41
2019-05-03T04:29:12.782Z,99850.67
2019-05-03T04:34:16.181Z,99867.88
2019-05-03T04:39:27.789Z,99873.39
2019-05-03T04:44:31.779Z,99881.94
2019-05-03T04:49:36.856Z,99879.86
2019-05-03T04:54:45.270Z,99880.44
2019-05-03T04:59:47.537Z,99885.95
2019-05-03T05:04:49.603Z,99899.84
2019-05-03T05:09:51.790Z,99907.62
2019-05-03T05:14:56.113Z,99916.41
2019-05-03T05:20:05.334Z,99916.80
2019-05-03T05:25:11.657Z,99925.84
2019-05-03T05:30:14.906Z,99928.20
2019-05-03T05:35:17.199Z,99943.79
2019-05-03T05:40:22.028Z,99935.23
2019-05-03T05:45:24.666Z,99944.86
2019-05-03T05:50:34.705Z,99945.23
2019-05-03T05:55:59.246Z,99940.58
2019-05-03T06:01:05.888Z,99955.52
2019-05-03T06:06:10.801Z,99943.03
2019-05-03T06:11:20.574Z,99952.18
2019-05-03T06:16:35.724Z,99948.00
2019-05-03T06:21:55.311Z,99963.66
2019-05-03T06:27:02.672Z,99967.69
2019-05-03T06:32:23.011Z,99965.63
2019-05-03T06:37:27.856Z,99970.72
2019-05-03T06:42:30.027Z,99974.70
2019-05-03T06:47:32.505Z,99977.81
2019-05-03T06:52:35.226Z,99973.84
2019-05-03T06:57:44.699Z,99979.94
2019-05-03T07:02:55.104Z,99977.16
2019-05-03T07:08:15.637Z,99991.20
2019-05-03T07:13:17.741Z,99995.23
2019-05-03T07:18:19.904Z,100000.58
2019-05-03T07:23:22.012Z,100004.19
2019-05-03T07:28:24.782Z,100008.00
2019-05-03T07:33:32.207Z,100013.27
2019-05-03T07:38:35.429Z,100014.05
2019-05-03T07:43:37.689Z,100013.53
2019-05-03T07:48:39.908Z,100015.52
2019-05-03T07:53:42.102Z,100014.92
2019-05-03T07:59:00.045Z,100017.27
2019-05-03T08:03:55.143Z,100026.52
2019-05-03T08:08:57.523Z,100025.09
2019-05-03T08:13:59.678Z,100019.16
2019-05-03T08:19:01.859Z,100016.77
2019-05-03T08:24:04.552Z,100006.39
2019-05-03T08:29:15.984Z,100002.75
2019-05-03T08:34:17.494Z,100004.83
2019-05-03T08:39:19.616Z,99996.89
2019-05-03T08:44:21.769Z,99996.70
2019-05-03T08:49:25.476Z,99996.92
2019-05-03T08:54:27.679Z,99986.30
2019-05-03T08:59:32.646Z,99983.75
2019-05-03T09:04:37.864Z,99987.56
2019-05-03T09:10:13.563Z,99987.05
2019-05-03T09:15:16.313Z,99980.12
2019-05-03T09:20:18.516Z,99971.23
2019-05-03T09:25:20.674Z,99970.67
2019-05-03T09:30:25.103Z,99966.86
2019-05-03T09:35:32.890Z,99967.92
2019-05-03T09:40:31.417Z,99968.59
2019-05-03T09:45:35.274Z,99966.45
2019-05-03T09:50:37.736Z,99966.17
2019-05-03T09:55:40.517Z,99964.44
2019-05-03T10:00:44.644Z,99971.23
2019-05-03T10:05:46.846Z,99954.09
2019-05-03T10:11:06.859Z,99957.09
2019-05-03T10:16:09.073Z,99962.00
2019-05-03T10:21:11.266Z,99964.88
2019-05-03T10:26:14.960Z,99965.88
2019-05-03T10:31:17.682Z,99963.50
2019-05-03T10:36:20.180Z,99961.13
2019-05-03T10:41:22.311Z,99962.04
2019-05-03T10:46:25.089Z,99960.74
2019-05-03T10:51:29.776Z,99972.00
2019-05-03T10:56:55.875Z,99979.81
2019-05-03T11:02:20.781Z,99977.75
2019-05-03T11:07:22.972Z,99980.73
2019-05-03T11:12:26.072Z,99966.62
2019-05-03T11:17:28.173Z,99974.59
2019-05-03T11:22:30.341Z,99967.30
2019-05-03T11:27:39.212Z,99974.63
2019-05-03T11:32:52.543Z,99963.63
2019-05-03T11:38:09.545Z,99976.05
2019-05-03T11:43:11.886Z,99962.58
2019-05-03T11:48:14.795Z,99958.23
2019-05-03T11:53:16.996Z,99964.96
2019-05-03T11:58:21.255Z,99957.96
2019-05-03T12:03:30.091Z,99967.11
2019-05-03T12:08:34.474Z,99960.53
2019-05-03T12:13:36.573Z,99960.79
2019-05-03T12:18:48.842Z,99973.19
2019-05-03T12:23:45.580Z,99971.52
2019-05-03T12:28:47.956Z,99952.89
2019-05-03T12:33:50.791Z,99949.05
2019-05-03T12:38:54.801Z,99938.05
2019-05-03T12:43:57.269Z,99950.34
2019-05-03T12:48:59.502Z,99935.69
2019-05-03T12:54:01.879Z,99937.19
2019-05-03T12:59:09.506Z,99917.12
2019-05-03T13:04:15.297Z,99928.73
2019-05-03T13:09:17.567Z,99926.51
2019-05-03T13:14:19.783Z,99921.54
2019-05-03T13:19:22.234Z,99921.54
2019-05-03T13:24:25.978Z,99912.31
2019-05-03T13:29:28.245Z,99901.36
2019-05-03T13:34:30.649Z,99916.29
2019-05-03T13:39:32.738Z,99909.64
2019-05-03T13:44:35.577Z,99896.92
2019-05-03T13:49:38.028Z,99902.52
2019-05-03T13:54:40.305Z,99892.44
2019-05-03T13:59:44.689Z,99876.91
2019-05-03T14:04:52.390Z,99862.36
2019-05-03T14:09:50.700Z,99875.28
2019-05-03T14:14:55.642Z,99867.14
2019-05-03T14:20:08.383Z,99851.42
2019-05-03T14:25:10.481Z,99851.83
2019-05-03T14:30:14.607Z,99843.09
2019-05-03T14:35:16.876Z,99837.70
2019-05-03T14:40:19.100Z,99836.57
2019-05-03T14:45:21.233Z,99831.27
2019-05-03T14:50:25.450Z,99838.31
2019-05-03T14:55:39.543Z,99834.45
2019-05-03T15:00:48.995Z,99829.23
2019-05-03T15:05:51.180Z,99834.23
2019-05-03T15:10:54.692Z,99827.27
2019-05-03T15:15:56.909Z,99823.78
2019-05-03T15:20:59.317Z,99807.40
2019-05-03T15:26:01.472Z,99814.59
2019-05-03T15:31:04.593Z,99823.05
2019-05-03T15:36:07.144Z,99819.80
2019-05-03T15:41:09.348Z,99824.27
2019-05-03T15:46:37.351Z,99818.80
2019-05-03T15:51:39.578Z,99824.38
2019-05-03T15:56:41.798Z,99813.42
2019-05-03T16:01:44.007Z,99816.09
2019-05-03T16:06:46.519Z,99817.27
2019-05-03T16:11:48.963Z,99821.36
2019-05-03T16:16:54.812Z,99815.95
2019-05-03T16:21:57.189Z,99834.11
2019-05-03T16:27:24.716Z,99822.91
2019-05-03T16:32:27.041Z,99822.94
2019-05-03T16:37:29.317Z,99815.73
2019-05-03T16:42:31.542Z,99814.89
2019-05-03T16:47:35.445Z,99819.09
2019-05-03T16:52:37.821Z,99820.19
2019-05-03T16:57:40.421Z,99823.09
2019-05-03T17:02:44.319Z,99814.01
2019-05-03T17:07:52.459Z,99814.69
2019-05-03T17:12:56.879Z,99830.36
2019-05-03T17:17:58.707Z,99826.05
2019-05-03T17:23:00.890Z,99826.77
2019-05-03T17:28:04.877Z,99826.09
2019-05-03T17:33:07.373Z,99821.81
2019-05-03T17:38:10.011Z,99832.17
2019-05-03T17:43:19.768Z,99833.08
2019-05-03T17:48:21.998Z,99827.80
2019-05-03T17:53:54.742Z,99821.33
2019-05-03T17:59:25.707Z,99818.25
2019-05-03T18:04:49.903Z,99827.13
2019-05-03T18:09:52.397Z,99825.99
2019-05-03T18:14:55.410Z,99819.89
2019-05-03T18:19:57.808Z,99826.45
2019-05-03T18:25:00.143Z,99830.48
2019-05-03T18:30:08.846Z,99838.49
2019-05-03T18:35:12.036Z,99835.88
2019-05-03T18:40:14.265Z,99833.87
2019-05-03T18:45:21.965Z,99839.10
2019-05-03T18:50:24.608Z,99847.43
2019-05-03T18:55:26.674Z,99837.85
2019-05-03T19:00:29.470Z,99846.88
2019-05-03T19:05:34.850Z,99849.45
2019-05-03T19:10:44.645Z,99855.44
2019-05-03T19:15:47.165Z,99847.06
2019-05-03T19:20:49.552Z,99851.68
2019-05-03T19:25:51.661Z,99852.48
2019-05-03T19:30:54.912Z,99844.76
2019-05-03T19:36:00.175Z,99841.88
2019-05-03T19:41:01.610Z,99837.72
2019-05-03T19:46:04.567Z,99839.67
2019-05-03T19:51:07.910Z,99828.53
2019-05-03T19:56:10.307Z,99824.00
2019-05-03T20:01:34.955Z,99837.17
2019-05-03T20:06:45.221Z,99833.48
2019-05-03T20:11:47.470Z,99836.92
2019-05-03T20:16:49.637Z,99844.21
2019-05-03T20:21:52.047Z,99841.09
2019-05-03T20:26:54.300Z,99841.92
2019-05-03T20:31:56.766Z,99845.89
2019-05-03T20:36:59.022Z,99846.89
2019-05-03T20:42:01.229Z,99853.77
2019-05-03T20:47:25.234Z,99849.24
2019-05-03T20:52:27.597Z,99851.31
2019-05-03T20:57:30.184Z,99851.88
2019-05-03T21:02:34.383Z,99843.70
2019-05-03T21:08:00.705Z,99848.66
2019-05-03T21:20:25.398Z,99837.62
2019-05-03T21:26:12.874Z,99839.27
2019-05-03T21:31:10.895Z,99839.31
2019-05-03T21:36:15.071Z,99839.33
2019-05-03T21:41:17.432Z,99834.77
2019-05-03T21:46:26.835Z,99840.21
2019-05-03T21:51:29.027Z,99828.70
2019-05-03T21:56:31.693Z,99834.88
2019-05-03T22:01:37.513Z,99827.84
2019-05-03T22:06:49.138Z,99833.73
2019-05-03T22:12:11.224Z,99821.19
2019-05-03T22:17:44.660Z,99827.15
2019-05-03T22:22:56.721Z,99810.98
2019-05-03T22:29:10.304Z,99813.13
2019-05-03T22:34:25.490Z,99808.91
2019-05-03T22:39:42.078Z,99789.34
2019-05-03T22:45:27.491Z,99789.34
2019-05-03T22:50:36.218Z,99772.95
2019-05-03T22:55:48.618Z,99784.49
2019-05-03T23:01:12.273Z,99778.17
2019-05-03T23:06:28.130Z,99775.38
2019-05-03T23:12:05.538Z,99764.89
2019-05-03T23:23:51.954Z,99735.89
2019-05-03T23:29:16.167Z,99722.91
2019-05-03T23:34:41.816Z,99708.73
2019-05-03T23:40:12.056Z,99708.06
2019-05-03T23:45:27.964Z,99695.39
2019-05-03T23:50:51.762Z,99676.73
2019-05-03T23:56:21.133Z,99682.36
